createdAt,value
2022-11-28T00:01:42.941Z,7.73
2022-11-28T00:04:12.698Z,9.33
2022-11-28T00:06:45.329Z,7.63
2022-11-28T00:09:15.333Z,9.80
2022-11-28T00:11:46.064Z,8.93
2022-11-28T00:14:16.864Z,11.13
2022-11-28T00:16:44.904Z,8.30
2022-11-28T00:19:14.869Z,7.53
2022-11-28T00:21:43.598Z,11.17
2022-11-28T00:24:11.717Z,10.47
2022-11-28T00:26:42.375Z,7.20
2022-11-28T00:29:11.460Z,10.60
2022-11-28T00:31:43.766Z,8.90
2022-11-28T00:34:14.314Z,9.33
2022-11-28T00:36:44.359Z,7.93
2022-11-28T00:39:12.543Z,7.60
2022-11-28T00:41:40.642Z,7.03
2022-11-28T00:44:09.062Z,7.33
2022-11-28T00:46:37.145Z,6.50
2022-11-28T00:49:06.551Z,9.63
2022-11-28T00:51:36.035Z,9.33
2022-11-28T00:54:06.874Z,7.10
2022-11-28T00:56:38.214Z,8.50
2022-11-28T00:59:07.126Z,11.00
2022-11-28T01:01:37.781Z,9.90
2022-11-28T01:04:10.039Z,9.90
2022-11-28T01:06:40.951Z,6.60
2022-11-28T01:09:12.989Z,7.03
2022-11-28T01:11:42.205Z,6.23
2022-11-28T01:14:12.059Z,6.40
2022-11-28T01:16:40.659Z,8.40
2022-11-28T01:19:10.262Z,10.03
2022-11-28T01:21:38.503Z,7.30
2022-11-28T01:24:07.045Z,6.63
2022-11-28T01:26:35.478Z,5.53
2022-11-28T01:29:03.451Z,7.97
2022-11-28T01:31:32.177Z,5.90
2022-11-28T01:34:00.467Z,8.67
2022-11-28T01:36:30.534Z,5.47
2022-11-28T01:38:58.559Z,6.27
2022-11-28T01:41:28.850Z,6.63
2022-11-28T01:44:00.383Z,5.17
2022-11-28T01:46:29.387Z,5.93
2022-11-28T01:49:04.076Z,6.10
2022-11-28T01:51:34.705Z,6.03
2022-11-28T01:54:03.897Z,6.90
2022-11-28T01:56:42.322Z,7.53
2022-11-28T01:59:13.181Z,6.30
2022-11-28T02:01:41.472Z,6.77
2022-11-28T02:04:10.767Z,6.30
2022-11-28T02:06:41.022Z,8.80
2022-11-28T02:09:13.024Z,5.00
2022-11-28T02:12:08.287Z,6.23
2022-11-28T02:15:00.980Z,6.53
2022-11-28T02:17:41.609Z,8.80
2022-11-28T02:20:43.755Z,7.70
2022-11-28T02:23:19.898Z,8.87
2022-11-28T02:26:28.434Z,5.90
2022-11-28T02:30:13.226Z,6.40
2022-11-28T02:33:04.618Z,7.13
2022-11-28T02:35:42.746Z,6.60
2022-11-28T02:38:20.935Z,5.70
2022-11-28T02:41:00.874Z,5.53
2022-11-28T02:43:37.136Z,5.00
2022-11-28T02:46:14.793Z,5.50
2022-11-28T02:48:51.001Z,8.47
2022-11-28T02:51:25.986Z,6.53
2022-11-28T02:53:56.345Z,11.90
2022-11-28T02:56:26.091Z,6.63
2022-11-28T02:58:54.849Z,6.83
2022-11-28T03:01:28.330Z,12.47
2022-11-28T03:04:23.901Z,5.03
2022-11-28T03:07:06.341Z,9.57
2022-11-28T03:09:52.599Z,4.23
2022-11-28T03:12:32.817Z,5.27
2022-11-28T03:15:04.603Z,5.20
2022-11-28T03:17:49.531Z,5.20
2022-11-28T03:20:24.384Z,5.20
2022-11-28T03:23:07.823Z,5.20
2022-11-28T03:25:45.818Z,7.17
2022-11-28T03:28:20.562Z,6.17
2022-11-28T03:30:52.615Z,4.33
2022-11-28T03:33:22.443Z,6.07
2022-11-28T03:35:58.799Z,4.53
2022-11-28T03:38:34.126Z,4.80
2022-11-28T03:41:09.214Z,4.63
2022-11-28T03:43:43.055Z,4.27
2022-11-28T03:46:17.749Z,5.73
2022-11-28T03:48:50.710Z,4.70
2022-11-28T03:51:23.666Z,5.50
2022-11-28T03:53:56.900Z,5.00
2022-11-28T03:56:31.537Z,4.10
2022-11-28T03:59:05.301Z,3.87
2022-11-28T04:01:40.340Z,6.57
2022-11-28T04:04:26.542Z,4.60
2022-11-28T04:07:03.462Z,4.83
2022-11-28T04:09:41.945Z,3.40
2022-11-28T04:12:18.492Z,5.00
2022-11-28T04:14:53.724Z,5.80
2022-11-28T04:17:32.383Z,4.00
2022-11-28T04:20:07.768Z,4.30
2022-11-28T04:22:43.484Z,5.20
2022-11-28T04:25:16.364Z,7.27
2022-11-28T04:27:49.646Z,5.60
2022-11-28T04:30:18.083Z,5.30
2022-11-28T04:32:52.027Z,4.40
2022-11-28T04:35:27.599Z,5.20
2022-11-28T04:37:59.776Z,4.87
2022-11-28T04:40:31.640Z,4.37
2022-11-28T04:43:04.100Z,4.30
2022-11-28T04:45:36.452Z,2.90
2022-11-28T04:48:05.647Z,3.90
2022-11-28T04:50:52.370Z,3.37
2022-11-28T04:53:31.804Z,3.70
2022-11-28T04:56:04.648Z,3.90
2022-11-28T04:58:36.588Z,4.80
2022-11-28T05:01:09.033Z,2.97
2022-11-28T05:03:42.286Z,5.03
2022-11-28T05:06:10.971Z,3.67
2022-11-28T05:08:40.445Z,4.40
2022-11-28T05:11:08.404Z,6.57
2022-11-28T05:13:36.428Z,3.37
2022-11-28T05:16:05.785Z,5.43
2022-11-28T05:18:33.974Z,3.87
2022-11-28T05:21:02.203Z,2.97
2022-11-28T05:23:30.222Z,3.93
2022-11-28T05:25:59.531Z,3.83
2022-11-28T05:28:27.506Z,5.63
2022-11-28T05:30:59.007Z,4.10
2022-11-28T05:33:27.043Z,3.87
2022-11-28T05:35:55.147Z,3.40
2022-11-28T05:38:23.225Z,5.00
2022-11-28T05:40:51.264Z,3.53
2022-11-28T05:43:20.656Z,3.90
2022-11-28T05:45:48.727Z,3.70
2022-11-28T05:48:16.790Z,3.43
2022-11-28T05:50:45.124Z,4.70
2022-11-28T05:53:13.343Z,3.50
2022-11-28T05:55:42.829Z,6.00
2022-11-28T05:58:11.818Z,5.00
2022-11-28T06:00:41.279Z,3.67
2022-11-28T06:03:09.349Z,3.27
2022-11-28T06:05:43.180Z,3.37
2022-11-28T06:08:12.893Z,2.87
2022-11-28T06:10:42.218Z,4.53
2022-11-28T06:13:10.318Z,3.30
2022-11-28T06:15:38.762Z,4.87
2022-11-28T06:18:08.822Z,4.80
2022-11-28T06:20:36.882Z,3.37
2022-11-28T06:23:04.887Z,3.40
2022-11-28T06:25:32.919Z,5.80
2022-11-28T06:28:00.935Z,3.53
2022-11-28T06:30:28.899Z,2.90
2022-11-28T06:32:56.868Z,3.63
2022-11-28T06:35:26.602Z,2.83
2022-11-28T06:37:54.628Z,3.43
2022-11-28T06:40:22.763Z,3.00
2022-11-28T06:42:51.091Z,3.80
2022-11-28T06:45:19.266Z,5.63
2022-11-28T06:47:48.029Z,4.60
2022-11-28T06:50:16.322Z,3.20
2022-11-28T06:52:46.164Z,3.20
2022-11-28T06:55:14.329Z,2.33
2022-11-28T06:57:42.423Z,3.27
2022-11-28T07:00:11.804Z,5.00
2022-11-28T07:02:39.991Z,4.93
2022-11-28T07:05:09.299Z,3.00
2022-11-28T07:07:52.788Z,3.57
2022-11-28T07:10:24.668Z,4.20
2022-11-28T07:12:55.478Z,3.57
2022-11-28T07:15:24.164Z,8.20
2022-11-28T07:17:52.197Z,3.63
2022-11-28T07:20:20.681Z,2.10
2022-11-28T07:22:49.750Z,2.90
2022-11-28T07:25:17.995Z,2.97
2022-11-28T07:27:47.390Z,4.00
2022-11-28T07:30:15.872Z,2.60
2022-11-28T07:32:43.938Z,3.87
2022-11-28T07:35:12.409Z,3.00
2022-11-28T07:37:40.582Z,2.60
2022-11-28T07:40:09.486Z,3.30
2022-11-28T07:42:38.014Z,3.00
2022-11-28T07:45:08.912Z,3.00
2022-11-28T07:47:37.007Z,3.63
2022-11-28T07:50:06.642Z,9.50
2022-11-28T07:52:34.707Z,3.73
2022-11-28T07:55:02.684Z,3.83
2022-11-28T07:57:31.502Z,4.40
2022-11-28T07:59:59.519Z,3.03
2022-11-28T08:02:32.283Z,4.30
2022-11-28T08:05:00.825Z,4.23
2022-11-28T08:07:28.959Z,3.30
2022-11-28T08:09:57.079Z,4.60
2022-11-28T08:12:25.202Z,3.67
2022-11-28T08:14:53.235Z,4.03
2022-11-28T08:17:21.270Z,10.50
2022-11-28T08:19:50.708Z,2.87
2022-11-28T08:22:18.764Z,2.90
2022-11-28T08:24:46.807Z,6.13
2022-11-28T08:27:14.832Z,2.30
2022-11-28T08:29:43.080Z,4.27
2022-11-28T08:32:11.237Z,3.83
2022-11-28T08:34:39.451Z,3.10
2022-11-28T08:37:08.840Z,5.00
2022-11-28T08:39:36.849Z,3.00
2022-11-28T08:42:04.976Z,3.53
2022-11-28T08:44:33.676Z,4.57
2022-11-28T08:47:01.763Z,4.17
2022-11-28T08:49:29.775Z,2.77
2022-11-28T08:51:57.748Z,2.23
2022-11-28T08:54:27.132Z,4.33
2022-11-28T08:56:55.136Z,4.10
2022-11-28T08:59:23.458Z,5.33
2022-11-28T09:01:53.632Z,3.33
2022-11-28T09:04:22.091Z,3.17
2022-11-28T09:06:50.293Z,4.07
2022-11-28T09:09:18.408Z,3.37
2022-11-28T09:11:48.018Z,4.10
2022-11-28T09:14:16.017Z,3.07
2022-11-28T09:16:44.122Z,3.60
2022-11-28T09:19:12.170Z,6.50
2022-11-28T09:21:40.556Z,10.13
2022-11-28T09:24:10.244Z,8.33
2022-11-28T09:26:38.253Z,9.20
2022-11-28T09:29:07.765Z,9.10
2022-11-28T09:31:35.985Z,5.93
2022-11-28T09:34:04.775Z,7.73
2022-11-28T09:36:33.902Z,9.50
2022-11-28T09:39:02.709Z,11.57
2022-11-28T09:41:44.324Z,8.90
2022-11-28T09:44:22.839Z,6.17
2022-11-28T09:46:55.128Z,6.00
2022-11-28T09:49:40.267Z,10.10
2022-11-28T09:52:26.755Z,5.07
2022-11-28T09:55:05.162Z,5.80
2022-11-28T09:57:37.173Z,9.97
2022-11-28T10:00:16.828Z,6.53
2022-11-28T10:03:03.388Z,12.07
2022-11-28T10:05:38.883Z,7.60
2022-11-28T10:08:23.149Z,4.80
2022-11-28T10:10:59.641Z,6.40
2022-11-28T10:14:06.488Z,8.17
2022-11-28T10:16:46.773Z,10.03
2022-11-28T10:19:38.600Z,4.80
2022-11-28T10:22:12.952Z,6.30
2022-11-28T10:24:51.631Z,7.47
2022-11-28T10:27:23.993Z,7.30
2022-11-28T10:30:02.903Z,9.00
2022-11-28T10:32:36.492Z,9.30
2022-11-28T10:35:27.903Z,8.27
2022-11-28T10:37:56.767Z,7.23
2022-11-28T10:40:35.735Z,4.40
2022-11-28T10:43:10.453Z,7.17
2022-11-28T10:45:50.434Z,6.63
2022-11-28T10:48:39.995Z,5.00
2022-11-28T10:51:26.901Z,8.23
2022-11-28T10:54:10.501Z,6.20
2022-11-28T10:56:50.791Z,5.33
2022-11-28T10:59:32.962Z,6.10
2022-11-28T11:02:05.474Z,5.07
2022-11-28T11:04:37.881Z,5.07
2022-11-28T11:07:21.011Z,5.73
2022-11-28T11:09:52.932Z,5.13
2022-11-28T11:12:26.457Z,7.07
2022-11-28T11:14:54.549Z,8.43
2022-11-28T11:17:35.452Z,3.73
2022-11-28T11:20:36.539Z,7.50
2022-11-28T11:23:16.506Z,4.60
2022-11-28T11:25:54.919Z,5.00
2022-11-28T11:28:34.037Z,5.40
2022-11-28T11:31:07.902Z,5.00
2022-11-28T11:33:38.220Z,4.33
2022-11-28T11:36:24.367Z,6.70
2022-11-28T11:38:53.309Z,5.43
2022-11-28T11:41:30.361Z,6.70
2022-11-28T11:44:29.208Z,5.27
2022-11-28T11:47:00.591Z,7.63
2022-11-28T11:49:35.647Z,4.80
2022-11-28T11:52:07.746Z,5.90
2022-11-28T11:54:35.808Z,6.83
2022-11-28T11:57:31.309Z,10.03
2022-11-28T11:59:57.619Z,4.70
2022-11-28T12:02:33.438Z,5.57
2022-11-28T12:05:07.019Z,3.67
2022-11-28T12:07:47.419Z,5.87
2022-11-28T12:10:20.575Z,5.37
2022-11-28T12:12:48.568Z,3.80
2022-11-28T12:15:31.633Z,7.93
2022-11-28T12:18:16.457Z,4.83
2022-11-28T12:20:59.300Z,8.00
2022-11-28T12:23:44.435Z,4.53
2022-11-28T12:26:23.090Z,4.80
2022-11-28T12:29:17.219Z,5.87
2022-11-28T12:31:57.101Z,6.43
2022-11-28T12:34:41.355Z,4.43
2022-11-28T12:37:29.470Z,4.20
2022-11-28T12:40:16.730Z,8.37
2022-11-28T12:43:06.702Z,4.43
2022-11-28T12:45:43.993Z,5.70
2022-11-28T12:48:33.567Z,8.23
2022-11-28T12:51:13.308Z,6.03
2022-11-28T12:53:59.729Z,7.77
2022-11-28T12:56:42.100Z,4.15
2022-11-28T12:59:22.258Z,8.00
2022-11-28T13:02:06.694Z,5.60
2022-11-28T13:05:01.661Z,6.57
2022-11-28T13:07:41.642Z,4.37
2022-11-28T13:10:19.005Z,5.83
2022-11-28T13:12:57.341Z,4.87
2022-11-28T13:15:46.915Z,3.23
2022-11-28T13:18:29.315Z,4.70
2022-11-28T13:21:08.080Z,4.30
2022-11-28T13:23:44.794Z,4.17
2022-11-28T13:26:30.035Z,3.57
2022-11-28T13:29:09.285Z,3.50
2022-11-28T13:31:44.549Z,6.80
2022-11-28T13:34:16.606Z,3.57
2022-11-28T13:39:46.324Z,4.43
2022-11-28T13:43:03.296Z,3.60
2022-11-28T13:45:30.214Z,4.57
2022-11-28T13:48:01.491Z,2.93
2022-11-28T13:50:39.782Z,4.10
2022-11-28T13:53:24.820Z,6.20
2022-11-28T13:55:55.986Z,4.23
2022-11-28T13:58:28.477Z,5.17
2022-11-28T14:01:05.319Z,12.10
2022-11-28T14:03:36.867Z,4.07
2022-11-28T14:06:07.490Z,3.40
2022-11-28T14:08:39.985Z,4.10
2022-11-28T14:11:50.739Z,3.80
2022-11-28T14:14:47.353Z,3.03
2022-11-28T14:17:42.179Z,3.63
2022-11-28T14:20:24.176Z,5.20
2022-11-28T14:23:13.366Z,4.57
2022-11-28T14:25:45.360Z,3.53
2022-11-28T14:28:23.822Z,4.33
2022-11-28T14:30:52.845Z,3.53
2022-11-28T14:33:26.815Z,4.03
2022-11-28T14:36:35.055Z,2.73
2022-11-28T14:39:42.443Z,3.47
2022-11-28T14:45:45.600Z,4.40
2022-11-28T14:48:30.790Z,5.23
2022-11-28T14:51:02.278Z,5.70
2022-11-28T14:53:46.512Z,4.80
2022-11-28T14:56:28.879Z,3.77
2022-11-28T14:59:03.352Z,10.07
2022-11-28T15:01:56.066Z,5.23
2022-11-28T15:04:50.435Z,4.70
2022-11-28T15:07:29.930Z,4.93
2022-11-28T15:10:08.793Z,5.90
2022-11-28T15:12:51.826Z,3.60
2022-11-28T15:15:22.631Z,6.70
2022-11-28T15:17:54.331Z,5.53
2022-11-28T15:20:28.704Z,9.73
2022-11-28T15:22:56.717Z,3.90
2022-11-28T15:25:29.090Z,5.13
2022-11-28T15:27:57.069Z,4.47
2022-11-28T15:30:28.099Z,4.43
2022-11-28T15:32:59.804Z,5.83
2022-11-28T15:35:29.036Z,5.27
2022-11-28T15:37:59.069Z,5.00
2022-11-28T15:40:30.058Z,5.83
2022-11-28T15:42:59.250Z,5.47
2022-11-28T15:45:31.050Z,6.37
2022-11-28T15:47:59.685Z,7.13
2022-11-28T15:50:30.193Z,10.10
2022-11-28T15:53:00.359Z,9.53
2022-11-28T15:55:31.157Z,4.03
2022-11-28T15:58:20.815Z,6.70
2022-11-28T16:00:55.287Z,7.20
2022-11-28T16:03:27.727Z,14.27
2022-11-28T16:05:58.339Z,16.70
2022-11-28T16:08:30.272Z,11.50
2022-11-28T16:10:59.604Z,7.37
2022-11-28T16:13:32.478Z,5.33
2022-11-28T16:16:03.966Z,8.10
2022-11-28T16:18:32.523Z,4.00
2022-11-28T16:21:02.004Z,8.57
2022-11-28T16:23:35.037Z,7.00
2022-11-28T16:26:06.451Z,6.50
2022-11-28T16:28:36.837Z,8.23
2022-11-28T16:31:13.260Z,4.17
2022-11-28T16:33:43.005Z,5.57
2022-11-28T16:36:20.056Z,5.30
2022-11-28T16:38:50.451Z,5.93
2022-11-28T16:41:22.405Z,5.87
2022-11-28T16:43:54.369Z,4.30
2022-11-28T16:46:26.147Z,6.67
2022-11-28T16:48:57.621Z,4.27
2022-11-28T16:51:32.575Z,4.90
2022-11-28T16:54:01.776Z,8.00
2022-11-28T16:56:44.998Z,5.77
2022-11-28T16:59:15.868Z,5.23
2022-11-28T17:01:48.157Z,8.27
2022-11-28T17:04:22.406Z,4.50
2022-11-28T17:06:52.033Z,7.57
2022-11-28T17:09:20.862Z,4.13
2022-11-28T17:11:55.540Z,7.63
2022-11-28T17:14:23.547Z,4.93
2022-11-28T17:16:52.959Z,6.30
2022-11-28T17:19:20.983Z,4.00
2022-11-28T17:21:53.056Z,4.33
2022-11-28T17:24:24.427Z,3.97
2022-11-28T17:26:54.978Z,9.90
2022-11-28T17:29:25.147Z,3.90
2022-11-28T17:31:57.022Z,4.63
2022-11-28T17:34:27.425Z,3.50
2022-11-28T17:36:55.430Z,6.40
2022-11-28T17:39:23.597Z,3.40
2022-11-28T17:41:52.309Z,3.73
2022-11-28T17:44:24.115Z,5.00
2022-11-28T17:46:55.230Z,5.37
2022-11-28T17:49:24.054Z,5.90
2022-11-28T17:51:52.906Z,3.40
2022-11-28T17:54:24.116Z,5.57
2022-11-28T17:56:53.605Z,6.27
2022-11-28T17:59:24.119Z,4.57
2022-11-28T18:01:52.144Z,5.47
2022-11-28T18:04:21.511Z,5.90
2022-11-28T18:06:49.752Z,7.80
2022-11-28T18:09:17.844Z,5.20
2022-11-28T18:11:46.251Z,7.40
2022-11-28T18:14:18.115Z,7.97
2022-11-28T18:16:47.577Z,12.10
2022-11-28T18:19:15.642Z,9.70
2022-11-28T18:21:45.058Z,7.50
2022-11-28T18:24:13.117Z,10.33
2022-11-28T18:26:41.200Z,10.47
2022-11-28T18:29:09.462Z,11.73
2022-11-28T18:31:37.700Z,24.83
2022-11-28T18:34:09.022Z,23.53
2022-11-28T18:36:38.995Z,22.60
2022-11-28T18:39:12.328Z,23.20
2022-11-28T18:41:40.870Z,29.23
2022-11-28T18:44:10.445Z,28.97
2022-11-28T18:46:39.687Z,36.73
2022-11-28T18:49:08.178Z,31.13
2022-11-28T18:51:36.662Z,28.17
2022-11-28T18:54:07.813Z,31.47
2022-11-28T18:56:36.228Z,39.40
2022-11-28T18:59:04.284Z,39.43
2022-11-28T19:01:34.540Z,29.97
2022-11-28T19:04:06.103Z,43.30
2022-11-28T19:06:36.535Z,29.23
2022-11-28T19:09:10.246Z,44.60
2022-11-28T19:11:39.012Z,39.43
2022-11-28T19:14:07.933Z,37.03
2022-11-28T19:16:38.513Z,28.67
2022-11-28T19:19:07.746Z,40.53
2022-11-28T19:21:37.360Z,30.53
2022-11-28T19:24:08.966Z,28.57
2022-11-28T19:26:37.961Z,37.37
2022-11-28T19:29:07.214Z,30.47
2022-11-28T19:31:38.027Z,31.00
2022-11-28T19:34:08.859Z,26.67
2022-11-28T19:36:40.631Z,32.03
2022-11-28T19:39:15.662Z,33.60
2022-11-28T19:41:43.897Z,26.33
2022-11-28T19:44:12.182Z,41.87
2022-11-28T19:46:40.351Z,26.17
2022-11-28T19:49:11.422Z,27.10
2022-11-28T19:51:39.474Z,31.13
2022-11-28T19:54:09.005Z,26.70
2022-11-28T19:56:37.053Z,20.87
2022-11-28T19:59:05.039Z,23.57
2022-11-28T20:01:33.210Z,26.43
2022-11-28T20:04:01.277Z,26.43
2022-11-28T20:06:31.598Z,23.33
2022-11-28T20:09:03.791Z,19.60
2022-11-28T20:11:36.107Z,21.23
2022-11-28T20:14:07.236Z,23.63
2022-11-28T20:16:37.701Z,21.90
2022-11-28T20:19:07.191Z,24.03
2022-11-28T20:21:36.462Z,20.93
2022-11-28T20:24:08.091Z,19.00
2022-11-28T20:26:40.498Z,21.37
2022-11-28T20:29:09.679Z,19.00
2022-11-28T20:31:41.877Z,22.63
2022-11-28T20:34:09.903Z,18.57
2022-11-28T20:36:38.347Z,20.93
2022-11-28T20:39:07.185Z,19.20
2022-11-28T20:41:35.202Z,21.20
2022-11-28T20:44:04.561Z,21.43
2022-11-28T20:46:35.447Z,20.83
2022-11-28T20:49:06.036Z,18.27
2022-11-28T20:51:36.086Z,16.33
2022-11-28T20:54:06.527Z,16.93
2022-11-28T20:57:05.087Z,15.63
2022-11-28T20:59:28.465Z,15.40
2022-11-28T21:01:56.427Z,14.43
2022-11-28T21:04:24.531Z,19.80
2022-11-28T21:06:52.551Z,17.70
2022-11-28T21:09:20.794Z,16.73
2022-11-28T21:11:58.498Z,20.80
2022-11-28T21:14:29.694Z,14.57
2022-11-28T21:16:58.861Z,14.70
2022-11-28T21:19:27.113Z,17.50
2022-11-28T21:21:55.530Z,27.33
2022-11-28T21:24:23.585Z,16.30
2022-11-28T21:26:54.380Z,18.20
2022-11-28T21:29:24.807Z,15.80
2022-11-28T21:31:54.817Z,15.80
2022-11-28T21:34:23.006Z,17.40
2022-11-28T21:36:51.084Z,18.93
2022-11-28T21:39:21.790Z,15.43
2022-11-28T21:41:50.840Z,14.70
2022-11-28T21:44:19.068Z,15.00
2022-11-28T21:46:47.124Z,17.83
2022-11-28T21:49:17.015Z,17.17
2022-11-28T21:51:44.956Z,16.77
2022-11-28T21:54:13.307Z,16.50
2022-11-28T21:56:41.774Z,11.53
2022-11-28T21:59:10.107Z,18.23
2022-11-28T22:01:38.183Z,17.80
2022-11-28T22:04:06.774Z,17.70
2022-11-28T22:06:36.145Z,14.20
2022-11-28T22:09:09.381Z,26.07
2022-11-28T22:11:38.751Z,16.70
2022-11-28T22:14:07.339Z,14.10
2022-11-28T22:16:35.398Z,21.17
2022-11-28T22:19:03.961Z,17.53
2022-11-28T22:24:22.356Z,17.93
2022-11-28T22:26:50.987Z,16.30
2022-11-28T22:29:19.137Z,13.97
2022-11-28T22:31:47.294Z,14.00
2022-11-28T22:34:15.569Z,14.40
2022-11-28T22:36:43.506Z,13.10
2022-11-28T22:39:12.297Z,12.43
2022-11-28T22:41:41.711Z,12.23
2022-11-28T22:44:12.401Z,10.60
2022-11-28T22:46:40.454Z,13.53
2022-11-28T22:49:08.424Z,18.03
2022-11-28T22:51:36.901Z,10.97
2022-11-28T22:54:05.306Z,16.30
2022-11-28T22:56:34.902Z,18.40
2022-11-28T22:59:05.014Z,14.07
2022-11-28T23:01:34.735Z,15.17
2022-11-28T23:04:02.858Z,24.90
2022-11-28T23:06:33.592Z,15.87
2022-11-28T23:09:04.871Z,12.47
2022-11-28T23:11:35.778Z,17.37
2022-11-28T23:14:05.664Z,16.60
2022-11-28T23:16:36.325Z,11.80
2022-11-28T23:19:08.136Z,12.77
2022-11-28T23:21:39.118Z,16.03
2022-11-28T23:24:08.869Z,16.43
2022-11-28T23:26:37.739Z,15.40
2022-11-28T23:29:07.330Z,14.00
2022-11-28T23:31:38.612Z,15.83
2022-11-28T23:34:07.724Z,14.30
2022-11-28T23:36:42.148Z,14.53
2022-11-28T23:39:13.805Z,16.20
2022-11-28T23:41:42.611Z,16.63
2022-11-28T23:44:13.724Z,12.90
2022-11-28T23:46:42.624Z,13.20
2022-11-28T23:49:12.054Z,19.83
2022-11-28T23:51:41.443Z,11.90
2022-11-28T23:54:11.554Z,10.20
2022-11-28T23:56:41.321Z,10.77
2022-11-28T23:59:12.569Z,12.90
